Time;durP1;ratioP1;P1;durP2;ratioP2;P2;SDS_P1;SDS_P2;PMS_P1;PMS_P2;Temp;Humidity;BMP_temperature;BMP_pressure;BME280_temperature;BME280_humidity;BME280_pressure;Samples;Min_cycle;Max_cycle;Signal;HPM_P1;HPM_P2
2023/05/17 00:01:42;;;;;;;5.43;1.58;;;;;;;;;;4997297;28;20049;-86
2023/05/17 00:04:09;;;;;;;3.90;1.55;;;;;;;;;;5014475;28;20475;-86
2023/05/17 00:06:37;;;;;;;3.95;1.52;;;;;;;;;;4996980;28;20119;-86
2023/05/17 00:09:04;;;;;;;3.70;1.50;;;;;;;;;;4997253;28;20112;-86
2023/05/17 00:11:33;;;;;;;3.75;1.50;;;;;;;;;;4997496;28;20050;-86
2023/05/17 00:14:01;;;;;;;2.20;1.15;;;;;;;;;;5014608;28;20050;-86
2023/05/17 00:16:28;;;;;;;5.30;1.70;;;;;;;;;;4997069;28;20076;-86
2023/05/17 00:18:55;;;;;;;3.83;1.35;;;;;;;;;;5014685;28;20572;-85
2023/05/17 00:21:23;;;;;;;3.90;1.88;;;;;;;;;;4997152;28;20085;-86
2023/05/17 00:23:50;;;;;;;4.70;2.05;;;;;;;;;;5014072;28;20081;-86
2023/05/17 00:26:17;;;;;;;2.35;1.63;;;;;;;;;;4996919;28;20089;-86
2023/05/17 00:28:45;;;;;;;3.05;1.40;;;;;;;;;;4997051;28;20080;-86
2023/05/17 00:31:12;;;;;;;2.00;1.30;;;;;;;;;;4996990;28;20462;-86
2023/05/17 00:33:39;;;;;;;4.93;1.33;;;;;;;;;;5013830;28;20096;-85
2023/05/17 00:36:07;;;;;;;7.05;1.40;;;;;;;;;;4996747;28;20041;-86
2023/05/17 00:38:34;;;;;;;2.55;1.20;;;;;;;;;;4996782;28;20076;-85
2023/05/17 00:41:01;;;;;;;1.40;1.30;;;;;;;;;;5013758;28;20465;-85
2023/05/17 00:43:29;;;;;;;2.42;1.20;;;;;;;;;;5014172;28;20049;-86
2023/05/17 00:45:56;;;;;;;3.13;1.15;;;;;;;;;;4996394;28;20457;-86
2023/05/17 00:48:26;;;;;;;2.85;1.30;;;;;;;;;;5013622;28;20100;-86
2023/05/17 00:50:55;;;;;;;1.55;1.40;;;;;;;;;;5013858;28;20085;-85
2023/05/17 00:53:22;;;;;;;2.90;1.25;;;;;;;;;;4996368;28;20045;-85
2023/05/17 00:55:49;;;;;;;6.55;1.63;;;;;;;;;;4996537;28;20527;-85
2023/05/17 00:58:17;;;;;;;3.90;1.48;;;;;;;;;;4996210;28;20049;-85
2023/05/17 01:00:44;;;;;;;6.00;1.50;;;;;;;;;;4995952;28;20133;-85
2023/05/17 01:03:11;;;;;;;5.80;1.63;;;;;;;;;;4996083;28;20506;-86
2023/05/17 01:05:39;;;;;;;2.75;1.17;;;;;;;;;;5013413;28;20093;-86
2023/05/17 01:08:06;;;;;;;7.10;1.48;;;;;;;;;;5013312;28;20461;-85
2023/05/17 01:10:37;;;;;;;7.10;1.75;;;;;;;;;;4996131;28;20046;-85
2023/05/17 01:13:15;;;;;;;4.00;1.65;;;;;;;;;;5013199;28;20506;-85
2023/05/17 01:15:44;;;;;;;4.00;1.52;;;;;;;;;;5013260;28;20053;-86
2023/05/17 01:18:17;;;;;;;3.35;1.50;;;;;;;;;;4995769;28;20046;-86
2023/05/17 01:20:45;;;;;;;3.77;1.67;;;;;;;;;;4976347;28;20049;-86
2023/05/17 01:23:13;;;;;;;3.72;1.00;;;;;;;;;;4977023;28;20542;-85
2023/05/17 01:25:50;;;;;;;5.07;1.52;;;;;;;;;;4984222;28;20092;-85
2023/05/17 01:28:17;;;;;;;3.38;1.23;;;;;;;;;;4976668;28;20069;-86
2023/05/17 01:30:45;;;;;;;4.28;1.30;;;;;;;;;;4976720;28;20077;-86
2023/05/17 01:33:13;;;;;;;10.48;1.63;;;;;;;;;;4976633;28;20053;-85
2023/05/17 01:35:41;;;;;;;8.63;1.55;;;;;;;;;;4976603;28;20050;-85
2023/05/17 01:38:09;;;;;;;2.05;1.20;;;;;;;;;;4976491;28;20491;-85
2023/05/17 01:40:39;;;;;;;3.72;1.48;;;;;;;;;;4976136;28;20464;-85
2023/05/17 01:43:17;;;;;;;4.32;1.30;;;;;;;;;;4976522;28;20089;-85
2023/05/17 01:45:52;;;;;;;3.95;1.60;;;;;;;;;;4976649;28;20053;-86
2023/05/17 01:48:31;;;;;;;2.60;1.20;;;;;;;;;;4976439;28;20047;-86
2023/05/17 01:50:59;;;;;;;2.80;1.67;;;;;;;;;;4976291;28;20053;-85
2023/05/17 01:53:32;;;;;;;8.52;1.52;;;;;;;;;;4993366;28;20121;-84
2023/05/17 01:56:18;;;;;;;3.35;1.80;;;;;;;;;;4976242;28;20089;-85
2023/05/17 01:58:47;;;;;;;6.55;1.60;;;;;;;;;;4976075;28;20054;-86
2023/05/17 02:01:15;;;;;;;4.13;1.27;;;;;;;;;;4976094;28;20074;-85
2023/05/17 02:03:43;;;;;;;3.50;1.45;;;;;;;;;;4976289;28;20120;-85
2023/05/17 02:06:10;;;;;;;2.50;1.40;;;;;;;;;;4975680;28;20423;-85
2023/05/17 02:08:37;;;;;;;5.47;1.77;;;;;;;;;;4993254;28;20145;-85
2023/05/17 02:11:05;;;;;;;6.90;1.50;;;;;;;;;;4976475;28;20050;-85
2023/05/17 02:13:32;;;;;;;4.28;1.55;;;;;;;;;;4979617;28;20454;-85
2023/05/17 02:16:00;;;;;;;1.98;1.20;;;;;;;;;;4979677;28;20089;-85
2023/05/17 02:18:27;;;;;;;9.77;1.90;;;;;;;;;;4979269;28;20498;-86
2023/05/17 02:20:55;;;;;;;10.85;1.60;;;;;;;;;;4996730;28;20061;-85
2023/05/17 02:23:23;;;;;;;6.70;1.95;;;;;;;;;;4979474;28;20118;-85
2023/05/17 02:25:51;;;;;;;4.28;1.65;;;;;;;;;;4979452;28;20054;-85
2023/05/17 02:28:18;;;;;;;6.38;1.70;;;;;;;;;;4996684;28;20070;-85
2023/05/17 02:30:45;;;;;;;3.38;1.77;;;;;;;;;;4979317;28;20101;-85
2023/05/17 02:33:12;;;;;;;7.20;1.60;;;;;;;;;;4995992;28;20077;-85
2023/05/17 02:35:40;;;;;;;3.75;1.95;;;;;;;;;;4996022;28;20046;-85
2023/05/17 02:38:07;;;;;;;5.93;1.63;;;;;;;;;;4996224;28;20108;-84
2023/05/17 02:40:34;;;;;;;2.28;1.92;;;;;;;;;;4996155;28;20459;-85
2023/05/17 02:43:01;;;;;;;4.55;1.77;;;;;;;;;;4996006;28;20057;-85
2023/05/17 02:45:30;;;;;;;8.40;1.95;;;;;;;;;;4978677;28;20050;-84
2023/05/17 02:47:57;;;;;;;6.47;1.90;;;;;;;;;;4995791;28;20053;-84
2023/05/17 02:50:24;;;;;;;6.93;1.88;;;;;;;;;;4978825;28;20145;-84
2023/05/17 02:52:52;;;;;;;11.88;2.00;;;;;;;;;;4978643;28;20108;-85
2023/05/17 02:55:19;;;;;;;4.20;1.55;;;;;;;;;;4978428;28;20053;-85
2023/05/17 02:57:46;;;;;;;4.63;1.70;;;;;;;;;;4995897;28;20046;-85
2023/05/17 03:00:15;;;;;;;3.13;1.60;;;;;;;;;;4995868;28;20503;-85
2023/05/17 03:02:42;;;;;;;4.95;1.77;;;;;;;;;;4978658;28;20483;-85
2023/05/17 03:05:10;;;;;;;4.45;1.70;;;;;;;;;;4995329;28;20050;-85
2023/05/17 03:07:37;;;;;;;4.05;1.60;;;;;;;;;;4978773;28;20189;-85
2023/05/17 03:10:05;;;;;;;4.00;2.20;;;;;;;;;;4978499;28;20046;-85
2023/05/17 03:12:33;;;;;;;7.35;2.10;;;;;;;;;;4978173;28;20054;-84
2023/05/17 03:15:00;;;;;;;6.55;1.95;;;;;;;;;;4995367;28;20051;-85
2023/05/17 03:17:27;;;;;;;1.73;1.55;;;;;;;;;;4978346;28;20466;-85
2023/05/17 03:19:55;;;;;;;4.50;2.00;;;;;;;;;;4995628;28;20131;-85
2023/05/17 03:22:22;;;;;;;4.32;1.95;;;;;;;;;;4978195;28;20050;-85
2023/05/17 03:24:49;;;;;;;11.77;2.17;;;;;;;;;;4995249;28;20047;-85
2023/05/17 03:27:17;;;;;;;4.75;1.88;;;;;;;;;;4978167;28;20414;-85
2023/05/17 03:29:44;;;;;;;6.07;2.25;;;;;;;;;;4995321;28;20089;-85
2023/05/17 03:32:11;;;;;;;12.13;2.70;;;;;;;;;;4978197;28;20082;-85
2023/05/17 03:34:38;;;;;;;3.00;2.00;;;;;;;;;;4977869;28;20053;-85
2023/05/17 03:37:06;;;;;;;5.03;2.40;;;;;;;;;;4977877;28;20121;-85
2023/05/17 03:39:33;;;;;;;3.13;1.90;;;;;;;;;;4977864;28;20074;-85
2023/05/17 03:42:01;;;;;;;6.32;2.40;;;;;;;;;;4995004;28;20054;-85
2023/05/17 03:44:28;;;;;;;10.20;3.13;;;;;;;;;;4994872;28;20101;-85
2023/05/17 03:46:55;;;;;;;5.75;3.13;;;;;;;;;;4994694;28;20120;-84
2023/05/17 03:49:23;;;;;;;5.35;2.70;;;;;;;;;;4994580;28;20120;-85
2023/05/17 03:51:50;;;;;;;3.90;2.75;;;;;;;;;;4994678;28;20116;-85
2023/05/17 03:54:17;;;;;;;9.70;2.53;;;;;;;;;;4977535;28;20046;-84
2023/05/17 03:56:47;;;;;;;3.47;2.10;;;;;;;;;;4977471;28;20120;-85
2023/05/17 03:59:15;;;;;;;4.97;2.28;;;;;;;;;;4994557;28;20047;-84
2023/05/17 04:01:42;;;;;;;6.38;2.25;;;;;;;;;;4977391;28;20085;-83
2023/05/17 04:04:09;;;;;;;2.67;2.38;;;;;;;;;;4977363;28;20463;-84
2023/05/17 04:06:37;;;;;;;4.93;2.85;;;;;;;;;;4994227;28;20060;-85
2023/05/17 04:09:04;;;;;;;19.92;6.72;;;;;;;;;;4994440;28;20093;-84
2023/05/17 04:11:31;;;;;;;38.85;15.10;;;;;;;;;;4977142;28;20050;-84
2023/05/17 04:13:59;;;;;;;6.65;2.70;;;;;;;;;;4994177;28;20053;-85
2023/05/17 04:16:26;;;;;;;11.02;2.63;;;;;;;;;;4994090;28;20120;-84
2023/05/17 04:18:53;;;;;;;13.13;2.40;;;;;;;;;;4976861;28;20043;-84
2023/05/17 04:21:21;;;;;;;7.40;2.55;;;;;;;;;;4977052;28;20063;-85
2023/05/17 04:23:48;;;;;;;8.35;2.38;;;;;;;;;;4976648;28;20057;-84
2023/05/17 04:26:16;;;;;;;4.63;2.13;;;;;;;;;;4993775;28;20092;-85
2023/05/17 04:28:43;;;;;;;10.27;3.08;;;;;;;;;;4976783;28;20479;-84
2023/05/17 04:31:10;;;;;;;4.65;2.05;;;;;;;;;;4976409;28;20113;-84
2023/05/17 04:33:37;;;;;;;6.93;2.80;;;;;;;;;;4976273;28;20554;-84
2023/05/17 04:36:05;;;;;;;5.13;3.17;;;;;;;;;;4976089;28;20089;-84
2023/05/17 04:38:32;;;;;;;16.35;9.27;;;;;;;;;;4976753;28;20105;-85
2023/05/17 04:41:08;;;;;;;13.35;6.22;;;;;;;;;;4976523;28;20120;-84
2023/05/17 04:43:35;;;;;;;4.57;3.85;;;;;;;;;;4976433;28;20061;-84
2023/05/17 04:46:04;;;;;;;11.38;3.67;;;;;;;;;;4976556;28;20069;-85
2023/05/17 04:48:32;;;;;;;10.07;5.80;;;;;;;;;;4976429;28;20057;-85
2023/05/17 04:51:01;;;;;;;10.07;5.80;;;;;;;;;;4976619;28;20074;-85
2023/05/17 04:53:28;;;;;;;11.15;6.05;;;;;;;;;;4976911;28;20057;-85
2023/05/17 04:55:56;;;;;;;9.27;4.60;;;;;;;;;;4976947;28;20094;-85
2023/05/17 04:58:23;;;;;;;11.57;5.15;;;;;;;;;;4976786;28;20113;-85
2023/05/17 05:00:51;;;;;;;11.50;4.35;;;;;;;;;;4994077;28;20094;-85
2023/05/17 05:03:18;;;;;;;8.80;3.97;;;;;;;;;;4993850;28;20046;-85
2023/05/17 05:05:46;;;;;;;6.10;3.28;;;;;;;;;;4993558;28;20070;-86
2023/05/17 05:08:13;;;;;;;8.27;3.22;;;;;;;;;;4993714;28;20089;-86
2023/05/17 05:10:40;;;;;;;6.32;2.80;;;;;;;;;;4992443;28;20481;-85
2023/05/17 05:13:08;;;;;;;7.18;3.20;;;;;;;;;;4976598;28;20061;-87
2023/05/17 05:15:35;;;;;;;6.90;3.42;;;;;;;;;;4993628;28;20074;-85
2023/05/17 05:18:02;;;;;;;6.72;3.65;;;;;;;;;;4976358;28;20120;-87
2023/05/17 05:20:31;;;;;;;5.78;3.30;;;;;;;;;;4993553;28;20053;-86
2023/05/17 05:22:59;;;;;;;5.80;2.88;;;;;;;;;;4976522;28;20556;-85
2023/05/17 05:25:27;;;;;;;7.63;2.78;;;;;;;;;;4976613;28;20050;-86
2023/05/17 05:27:55;;;;;;;5.28;2.53;;;;;;;;;;4993538;28;20543;-85
2023/05/17 05:30:22;;;;;;;5.85;2.33;;;;;;;;;;4993870;28;20050;-86
2023/05/17 05:32:49;;;;;;;6.07;1.95;;;;;;;;;;5001378;28;20034;-86
2023/05/17 05:35:17;;;;;;;4.10;1.92;;;;;;;;;;4976590;28;20101;-86
2023/05/17 05:37:44;;;;;;;6.97;2.35;;;;;;;;;;4976232;28;20120;-86
2023/05/17 05:40:12;;;;;;;8.38;1.80;;;;;;;;;;4980769;28;20125;-86
2023/05/17 05:42:39;;;;;;;13.80;2.38;;;;;;;;;;4976488;28;20054;-87
2023/05/17 05:45:07;;;;;;;6.38;2.60;;;;;;;;;;4976381;28;20410;-86
2023/05/17 05:47:35;;;;;;;8.90;2.47;;;;;;;;;;4996145;28;20054;-86
2023/05/17 05:50:02;;;;;;;10.23;2.80;;;;;;;;;;4997441;28;20491;-86
2023/05/17 05:52:30;;;;;;;15.10;2.83;;;;;;;;;;4980282;28;20077;-86
2023/05/17 05:54:57;;;;;;;8.45;2.35;;;;;;;;;;4980060;28;20077;-86
2023/05/17 05:57:24;;;;;;;10.77;4.00;;;;;;;;;;4980423;28;20046;-86
2023/05/17 05:59:51;;;;;;;14.07;4.82;;;;;;;;;;4997212;28;20047;-86
2023/05/17 06:02:20;;;;;;;20.05;3.40;;;;;;;;;;4980134;28;20066;-86
2023/05/17 06:04:47;;;;;;;15.48;2.47;;;;;;;;;;4979933;28;20061;-87
2023/05/17 06:07:15;;;;;;;10.02;2.38;;;;;;;;;;4996908;28;20098;-87
2023/05/17 06:09:42;;;;;;;12.15;2.40;;;;;;;;;;4980008;28;20488;-88
2023/05/17 06:12:10;;;;;;;16.75;2.65;;;;;;;;;;4979943;28;20082;-88
2023/05/17 06:14:37;;;;;;;9.02;2.33;;;;;;;;;;4979877;28;20081;-88
2023/05/17 06:17:04;;;;;;;9.43;2.33;;;;;;;;;;4980412;28;20116;-87
2023/05/17 06:19:32;;;;;;;10.38;2.85;;;;;;;;;;4980120;28;20523;-87
2023/05/17 06:21:59;;;;;;;9.15;2.72;;;;;;;;;;4997070;28;20081;-87
2023/05/17 06:24:27;;;;;;;8.63;2.83;;;;;;;;;;4980072;28;20046;-87
2023/05/17 06:26:54;;;;;;;10.60;2.60;;;;;;;;;;4979791;28;20057;-87
2023/05/17 06:29:22;;;;;;;15.48;2.50;;;;;;;;;;4980073;28;20051;-87
2023/05/17 06:31:50;;;;;;;6.75;2.47;;;;;;;;;;4980196;28;20099;-87
2023/05/17 06:34:17;;;;;;;5.60;2.47;;;;;;;;;;4979491;28;20050;-86
2023/05/17 06:36:44;;;;;;;5.80;2.38;;;;;;;;;;4979788;28;20054;-87
2023/05/17 06:39:12;;;;;;;6.65;2.00;;;;;;;;;;4980049;28;20141;-84
2023/05/17 06:41:39;;;;;;;6.43;2.47;;;;;;;;;;4981741;28;20570;-86
2023/05/17 06:44:06;;;;;;;11.20;3.08;;;;;;;;;;4999071;28;20057;-88
2023/05/17 06:46:34;;;;;;;7.13;2.30;;;;;;;;;;4999180;28;20045;-86
2023/05/17 06:49:01;;;;;;;8.90;2.60;;;;;;;;;;4998825;28;20423;-86
2023/05/17 06:51:28;;;;;;;9.10;2.20;;;;;;;;;;4998972;28;20131;-86
2023/05/17 06:53:56;;;;;;;4.75;2.75;;;;;;;;;;4998901;28;20081;-87
2023/05/17 06:56:23;;;;;;;11.88;3.00;;;;;;;;;;4999008;28;20056;-86
2023/05/17 06:58:50;;;;;;;7.22;2.78;;;;;;;;;;4998201;28;20384;-86
2023/05/17 07:01:18;;;;;;;7.35;3.55;;;;;;;;;;4999456;28;20100;-87
2023/05/17 07:03:46;;;;;;;5.70;2.38;;;;;;;;;;4999313;28;20058;-88
2023/05/17 07:06:14;;;;;;;13.13;2.90;;;;;;;;;;4998726;28;20708;-87
2023/05/17 07:08:41;;;;;;;8.57;2.53;;;;;;;;;;4998774;28;20077;-89
2023/05/17 07:11:08;;;;;;;6.75;2.58;;;;;;;;;;4998768;28;20116;-88
2023/05/17 07:13:35;;;;;;;6.75;2.90;;;;;;;;;;4998568;28;20050;-88
2023/05/17 07:16:03;;;;;;;7.47;3.53;;;;;;;;;;4998436;28;20041;-89
2023/05/17 07:18:30;;;;;;;9.68;2.83;;;;;;;;;;4998669;28;20457;-86
2023/05/17 07:20:57;;;;;;;5.03;2.63;;;;;;;;;;4998708;28;20050;-86
2023/05/17 07:23:25;;;;;;;8.25;2.67;;;;;;;;;;5015247;28;20145;-87
2023/05/17 07:25:52;;;;;;;9.43;2.70;;;;;;;;;;4998293;28;20549;-86
2023/05/17 07:28:19;;;;;;;11.82;3.00;;;;;;;;;;4997874;28;20077;-87
2023/05/17 07:30:47;;;;;;;9.52;2.67;;;;;;;;;;4998329;28;20107;-87
2023/05/17 07:33:14;;;;;;;6.55;2.72;;;;;;;;;;4998234;28;20104;-87
2023/05/17 07:35:41;;;;;;;7.53;2.97;;;;;;;;;;4998322;28;20042;-87
2023/05/17 07:38:09;;;;;;;9.90;2.95;;;;;;;;;;4998018;28;20049;-86
2023/05/17 07:40:36;;;;;;;9.07;3.33;;;;;;;;;;4997962;28;20054;-90
2023/05/17 07:43:04;;;;;;;12.77;3.28;;;;;;;;;;4997928;28;20104;-87
2023/05/17 07:45:31;;;;;;;12.70;3.67;;;;;;;;;;4997727;28;20560;-87
2023/05/17 07:47:58;;;;;;;10.85;3.13;;;;;;;;;;4997708;28;20050;-87
2023/05/17 07:50:26;;;;;;;9.57;2.83;;;;;;;;;;4997853;28;20053;-89
2023/05/17 07:52:53;;;;;;;6.25;3.13;;;;;;;;;;4997791;28;20498;-88
2023/05/17 07:55:21;;;;;;;15.68;3.53;;;;;;;;;;4997692;28;20073;-87
2023/05/17 07:57:48;;;;;;;7.47;2.80;;;;;;;;;;4997535;28;20076;-87
2023/05/17 08:00:18;;;;;;;8.30;2.78;;;;;;;;;;4998229;28;20050;-88
2023/05/17 08:02:45;;;;;;;6.75;2.75;;;;;;;;;;4997565;28;20081;-87
2023/05/17 08:05:13;;;;;;;8.95;2.60;;;;;;;;;;5014562;28;20132;-86
2023/05/17 08:07:40;;;;;;;5.22;2.42;;;;;;;;;;4997331;28;20549;-88
2023/05/17 08:10:08;;;;;;;7.82;2.97;;;;;;;;;;4996498;28;20093;-89
2023/05/17 08:12:35;;;;;;;6.65;2.47;;;;;;;;;;4997431;28;20054;-87
2023/05/17 08:15:02;;;;;;;5.43;2.50;;;;;;;;;;4997070;28;20065;-87
2023/05/17 08:17:30;;;;;;;3.90;2.42;;;;;;;;;;4996598;28;20092;-86
2023/05/17 08:19:57;;;;;;;5.75;2.55;;;;;;;;;;5014439;28;20054;-87
2023/05/17 08:22:27;;;;;;;6.35;2.42;;;;;;;;;;4997290;28;20566;-87
2023/05/17 08:24:54;;;;;;;5.93;2.65;;;;;;;;;;4997404;28;20506;-87
2023/05/17 08:27:23;;;;;;;7.03;2.63;;;;;;;;;;4996776;28;20073;-87
2023/05/17 08:29:50;;;;;;;7.45;2.58;;;;;;;;;;4996941;28;20424;-88
2023/05/17 08:32:17;;;;;;;5.55;2.60;;;;;;;;;;5014297;28;20410;-87
2023/05/17 08:34:46;;;;;;;9.85;2.83;;;;;;;;;;4996850;28;20093;-86
2023/05/17 08:37:13;;;;;;;7.70;2.45;;;;;;;;;;4996775;28;20505;-89
2023/05/17 08:39:41;;;;;;;15.27;3.22;;;;;;;;;;4997132;28;20092;-86
2023/05/17 08:42:08;;;;;;;9.20;2.55;;;;;;;;;;4996739;28;20108;-87
2023/05/17 08:44:37;;;;;;;6.55;2.45;;;;;;;;;;4996983;28;20132;-86
2023/05/17 08:47:06;;;;;;;10.27;2.95;;;;;;;;;;4996692;28;20506;-88
2023/05/17 08:49:36;;;;;;;5.45;3.08;;;;;;;;;;4997045;28;20558;-87
2023/05/17 08:52:08;;;;;;;8.10;2.70;;;;;;;;;;4996622;28;20050;-87
2023/05/17 08:54:36;;;;;;;6.97;2.40;;;;;;;;;;4996567;28;20413;-88
2023/05/17 08:57:05;;;;;;;6.85;2.50;;;;;;;;;;4996559;28;20058;-88
2023/05/17 08:59:34;;;;;;;16.90;3.80;;;;;;;;;;4996841;28;20119;-87
2023/05/17 09:02:01;;;;;;;8.77;2.50;;;;;;;;;;4996820;28;20410;-87
2023/05/17 09:04:32;;;;;;;6.32;2.50;;;;;;;;;;4996725;28;20481;-88
2023/05/17 09:06:59;;;;;;;6.57;2.47;;;;;;;;;;4996399;28;20053;-89
2023/05/17 09:09:26;;;;;;;12.07;2.88;;;;;;;;;;4996958;28;20060;-88
2023/05/17 09:11:54;;;;;;;8.65;2.50;;;;;;;;;;4996588;28;20057;-89
2023/05/17 09:14:21;;;;;;;10.00;2.88;;;;;;;;;;4996746;28;20058;-87
2023/05/17 09:16:56;;;;;;;6.90;2.53;;;;;;;;;;4996554;28;20085;-88
2023/05/17 09:19:23;;;;;;;5.90;2.83;;;;;;;;;;4995996;28;20065;-87
2023/05/17 09:21:50;;;;;;;10.63;2.78;;;;;;;;;;4996166;28;20072;-87
2023/05/17 09:24:19;;;;;;;6.43;2.83;;;;;;;;;;4996389;28;20058;-86
2023/05/17 09:26:46;;;;;;;11.43;2.90;;;;;;;;;;4996263;28;20046;-88
2023/05/17 09:29:14;;;;;;;5.60;2.20;;;;;;;;;;4996122;28;20108;-86
2023/05/17 09:31:42;;;;;;;24.83;4.30;;;;;;;;;;4996144;28;20103;-86
2023/05/17 09:34:10;;;;;;;8.43;2.47;;;;;;;;;;4995918;28;20149;-86
2023/05/17 09:36:38;;;;;;;4.63;2.53;;;;;;;;;;4996172;28;20491;-88
2023/05/17 09:39:09;;;;;;;4.90;2.17;;;;;;;;;;4996797;28;20046;-88
2023/05/17 09:41:46;;;;;;;9.65;2.58;;;;;;;;;;4996559;28;20081;-88
2023/05/17 09:44:15;;;;;;;8.77;2.72;;;;;;;;;;4997487;28;20081;-87
2023/05/17 09:46:46;;;;;;;6.05;2.38;;;;;;;;;;4996672;28;20074;-86
2023/05/17 09:49:15;;;;;;;7.85;2.00;;;;;;;;;;5013365;28;20053;-87
2023/05/17 09:51:43;;;;;;;8.48;2.67;;;;;;;;;;5013499;28;20054;-89
2023/05/17 09:54:10;;;;;;;6.43;2.30;;;;;;;;;;4996020;28;20109;-87
2023/05/17 09:56:39;;;;;;;7.75;2.38;;;;;;;;;;4996274;28;20108;-88
2023/05/17 09:59:15;;;;;;;9.23;2.95;;;;;;;;;;4996392;28;20137;-87
2023/05/17 10:01:44;;;;;;;6.43;2.92;;;;;;;;;;4996349;28;20080;-87
2023/05/17 10:04:12;;;;;;;6.70;2.53;;;;;;;;;;4996478;28;20054;-88
2023/05/17 10:06:41;;;;;;;8.15;2.60;;;;;;;;;;4996149;28;20068;-87
2023/05/17 10:09:17;;;;;;;5.60;2.72;;;;;;;;;;4997067;28;20074;-86
2023/05/17 10:11:46;;;;;;;5.50;2.42;;;;;;;;;;4996142;28;20502;-88
2023/05/17 10:14:21;;;;;;;8.02;2.63;;;;;;;;;;4996286;28;20054;-88
2023/05/17 10:16:50;;;;;;;6.55;2.40;;;;;;;;;;4996345;28;20054;-88
2023/05/17 10:19:19;;;;;;;5.43;2.33;;;;;;;;;;4996261;28;20053;-89
2023/05/17 10:21:50;;;;;;;8.85;2.50;;;;;;;;;;4996104;28;20391;-87
2023/05/17 10:24:20;;;;;;;5.03;2.28;;;;;;;;;;4995773;28;20103;-89
2023/05/17 10:26:50;;;;;;;5.40;2.58;;;;;;;;;;4996310;28;20157;-88
2023/05/17 10:29:19;;;;;;;6.57;2.80;;;;;;;;;;4995965;28;20085;-89
2023/05/17 10:31:49;;;;;;;4.20;2.45;;;;;;;;;;4995954;28;20049;-88
2023/05/17 10:34:18;;;;;;;4.28;2.13;;;;;;;;;;4999558;28;20414;-88
2023/05/17 10:36:45;;;;;;;6.63;2.75;;;;;;;;;;4998964;28;20081;-87
2023/05/17 10:39:13;;;;;;;5.90;2.83;;;;;;;;;;4999167;28;20042;-88
2023/05/17 10:41:42;;;;;;;10.43;2.63;;;;;;;;;;4999174;28;20092;-87
2023/05/17 10:44:11;;;;;;;4.15;2.35;;;;;;;;;;4999364;28;20081;-88
2023/05/17 10:46:39;;;;;;;9.25;2.35;;;;;;;;;;4999120;28;20120;-88
2023/05/17 10:49:07;;;;;;;5.78;2.63;;;;;;;;;;4998795;28;20498;-87
2023/05/17 10:51:36;;;;;;;4.15;2.35;;;;;;;;;;4998835;28;20072;-88
2023/05/17 10:54:20;;;;;;;9.43;2.83;;;;;;;;;;4999399;28;20093;-88
2023/05/17 10:56:48;;;;;;;5.43;2.35;;;;;;;;;;4998997;28;20056;-88
2023/05/17 10:59:20;;;;;;;7.35;2.78;;;;;;;;;;4999006;28;20128;-88
2023/05/17 11:01:58;;;;;;;11.35;2.80;;;;;;;;;;4998445;28;20049;-88
2023/05/17 11:04:25;;;;;;;7.82;2.47;;;;;;;;;;4998801;28;20474;-89
2023/05/17 11:06:54;;;;;;;6.05;2.20;;;;;;;;;;4998509;28;20065;-88
2023/05/17 11:09:25;;;;;;;6.10;2.35;;;;;;;;;;4998436;28;20077;-87
2023/05/17 11:12:11;;;;;;;4.55;2.30;;;;;;;;;;4996949;28;20095;-88
2023/05/17 11:14:44;;;;;;;4.75;2.20;;;;;;;;;;4991412;28;20062;-88
2023/05/17 11:17:16;;;;;;;5.70;2.40;;;;;;;;;;4979099;28;20054;-90
2023/05/17 11:20:01;;;;;;;6.32;2.72;;;;;;;;;;4978158;28;20411;-88
2023/05/17 11:22:35;;;;;;;9.57;2.42;;;;;;;;;;4979522;28;20053;-89
2023/05/17 11:25:06;;;;;;;5.65;1.88;;;;;;;;;;4978195;28;20202;-88
2023/05/17 11:27:37;;;;;;;7.32;2.33;;;;;;;;;;4979119;28;20046;-88
2023/05/17 11:30:18;;;;;;;9.90;2.55;;;;;;;;;;4978954;28;20487;-92
2023/05/17 11:32:46;;;;;;;5.03;1.80;;;;;;;;;;4978981;28;20077;-89
2023/05/17 11:35:14;;;;;;;5.53;2.33;;;;;;;;;;4978782;28;20129;-88
2023/05/17 11:37:43;;;;;;;6.22;2.13;;;;;;;;;;4978997;28;20069;-89
2023/05/17 11:40:12;;;;;;;6.47;2.30;;;;;;;;;;4978447;28;20054;-88
2023/05/17 11:42:40;;;;;;;6.07;2.90;;;;;;;;;;4978968;28;20069;-89
2023/05/17 11:45:08;;;;;;;4.90;2.10;;;;;;;;;;4978858;28;20467;-89
2023/05/17 11:47:39;;;;;;;8.90;2.40;;;;;;;;;;4978782;28;20097;-88
2023/05/17 11:50:06;;;;;;;5.10;2.30;;;;;;;;;;4978914;28;20054;-90
2023/05/17 11:52:36;;;;;;;6.13;2.28;;;;;;;;;;4978993;28;20502;-87
2023/05/17 11:55:05;;;;;;;3.92;1.70;;;;;;;;;;4978355;28;20472;-88
2023/05/17 11:57:32;;;;;;;9.68;2.50;;;;;;;;;;4978422;28;20054;-88
2023/05/17 12:00:00;;;;;;;6.75;2.25;;;;;;;;;;4978603;28;20062;-91
2023/05/17 12:02:29;;;;;;;5.57;2.35;;;;;;;;;;4978763;28;20046;-92
2023/05/17 12:04:57;;;;;;;5.68;2.00;;;;;;;;;;4978567;28;20050;-89
2023/05/17 12:07:24;;;;;;;6.20;2.57;;;;;;;;;;4977765;28;20499;-89
2023/05/17 12:09:52;;;;;;;9.13;2.45;;;;;;;;;;4978768;28;20084;-89
2023/05/17 12:12:21;;;;;;;5.30;2.30;;;;;;;;;;4978880;28;20057;-90
2023/05/17 12:14:49;;;;;;;4.78;2.10;;;;;;;;;;4978453;28;20555;-88
2023/05/17 12:17:21;;;;;;;5.53;2.15;;;;;;;;;;4978041;28;20078;-90
2023/05/17 12:19:51;;;;;;;5.07;2.35;;;;;;;;;;4978175;28;20062;-89
2023/05/17 12:22:18;;;;;;;7.05;2.40;;;;;;;;;;4978339;28;20054;-91
2023/05/17 12:24:46;;;;;;;8.85;2.38;;;;;;;;;;4978092;28;20050;-88
2023/05/17 12:27:13;;;;;;;5.00;1.80;;;;;;;;;;4978285;28;20503;-89
2023/05/17 12:29:40;;;;;;;7.40;2.42;;;;;;;;;;4977769;28;20116;-91
2023/05/17 12:32:09;;;;;;;9.25;2.50;;;;;;;;;;4978547;28;20055;-89
2023/05/17 12:34:36;;;;;;;5.70;1.95;;;;;;;;;;4977778;28;20462;-91
2023/05/17 12:37:08;;;;;;;9.75;2.42;;;;;;;;;;4977691;28;20074;-85
2023/05/17 12:39:36;;;;;;;7.28;2.22;;;;;;;;;;4978065;28;20058;-90
2023/05/17 12:42:03;;;;;;;5.95;2.17;;;;;;;;;;4979255;28;20058;-92
2023/05/17 12:44:32;;;;;;;8.32;2.58;;;;;;;;;;4977788;28;20054;-90
2023/05/17 12:47:01;;;;;;;8.43;2.20;;;;;;;;;;4979936;28;20077;-89
2023/05/17 12:49:29;;;;;;;7.03;1.73;;;;;;;;;;4977373;28;20062;-89
2023/05/17 12:51:56;;;;;;;16.58;6.72;;;;;;;;;;4979297;28;20463;-91
2023/05/17 12:54:23;;;;;;;3.55;1.90;;;;;;;;;;4978203;28;20477;-90
2023/05/17 12:56:50;;;;;;;11.48;2.78;;;;;;;;;;4976981;28;20069;-90
2023/05/17 12:59:24;;;;;;;50.78;24.27;;;;;;;;;;4977458;28;20046;-90
2023/05/17 13:01:54;;;;;;;7.95;2.40;;;;;;;;;;4977581;28;20050;-89
2023/05/17 13:04:28;;;;;;;25.67;4.65;;;;;;;;;;4977540;28;20046;-90
2023/05/17 13:07:00;;;;;;;15.45;3.63;;;;;;;;;;4977374;28;20053;-90
2023/05/17 13:09:31;;;;;;;4.65;1.83;;;;;;;;;;4976901;28;20050;-89
2023/05/17 13:11:59;;;;;;;20.08;2.63;;;;;;;;;;4977348;28;20047;-92
2023/05/17 13:14:33;;;;;;;7.35;2.35;;;;;;;;;;4977257;28;20133;-90
2023/05/17 13:17:01;;;;;;;6.15;2.60;;;;;;;;;;4977780;28;20058;-90
2023/05/17 13:19:28;;;;;;;5.82;1.83;;;;;;;;;;4977884;28;20134;-93
2023/05/17 13:21:55;;;;;;;5.22;2.22;;;;;;;;;;4977557;28;20495;-91
2023/05/17 13:24:23;;;;;;;8.68;2.15;;;;;;;;;;4978496;28;20058;-89
2023/05/17 13:26:50;;;;;;;7.18;1.98;;;;;;;;;;4977289;28;20077;-90
2023/05/17 13:29:17;;;;;;;7.72;1.52;;;;;;;;;;4976977;28;20050;-90
2023/05/17 13:31:54;;;;;;;4.53;1.67;;;;;;;;;;4978764;28;20566;-92
2023/05/17 13:34:21;;;;;;;7.20;2.10;;;;;;;;;;4977707;28;20424;-92
2023/05/17 13:36:49;;;;;;;5.43;1.98;;;;;;;;;;4977433;28;20051;-90
2023/05/17 13:39:16;;;;;;;7.13;1.90;;;;;;;;;;4979562;28;20050;-95
2023/05/17 13:41:44;;;;;;;10.57;2.55;;;;;;;;;;4977224;28;20281;-92
2023/05/17 13:44:12;;;;;;;4.65;1.50;;;;;;;;;;4981719;23;20043;-82
2023/05/17 13:46:39;;;;;;;8.00;2.33;;;;;;;;;;4973260;28;20050;-82
2023/05/17 13:49:07;;;;;;;6.90;2.17;;;;;;;;;;4973217;28;20047;-83
2023/05/17 13:51:36;;;;;;;6.90;1.90;;;;;;;;;;4973297;28;20058;-82
2023/05/17 13:54:04;;;;;;;6.78;1.95;;;;;;;;;;4972921;28;20112;-82
2023/05/17 13:56:31;;;;;;;7.53;1.90;;;;;;;;;;4972947;28;20138;-82
2023/05/17 13:58:58;;;;;;;7.13;1.80;;;;;;;;;;4972997;28;20113;-82
2023/05/17 14:01:26;;;;;;;3.67;1.90;;;;;;;;;;4973191;28;20444;-83
2023/05/17 14:03:54;;;;;;;6.03;1.90;;;;;;;;;;4974063;28;20119;-81
2023/05/17 14:06:21;;;;;;;8.57;1.90;;;;;;;;;;4973451;28;20059;-83
2023/05/17 14:08:48;;;;;;;5.35;2.00;;;;;;;;;;4978081;28;20138;-84
2023/05/17 14:11:16;;;;;;;4.80;1.63;;;;;;;;;;4979909;28;20451;-85
2023/05/17 14:13:46;;;;;;;6.03;1.63;;;;;;;;;;4980810;28;20051;-83
2023/05/17 14:16:13;;;;;;;3.83;1.65;;;;;;;;;;4980229;28;20047;-83
2023/05/17 14:18:41;;;;;;;7.82;2.40;;;;;;;;;;4980911;28;20055;-84
2023/05/17 14:21:09;;;;;;;5.03;1.63;;;;;;;;;;4980593;28;20057;-83
2023/05/17 14:23:36;;;;;;;8.52;2.40;;;;;;;;;;4980155;28;20452;-84
2023/05/17 14:26:06;;;;;;;7.15;2.22;;;;;;;;;;4979693;28;20427;-82
2023/05/17 14:28:36;;;;;;;7.88;1.92;;;;;;;;;;4979633;28;20138;-85
2023/05/17 14:31:09;;;;;;;5.35;2.03;;;;;;;;;;4979434;28;20058;-81
2023/05/17 14:33:37;;;;;;;11.05;2.08;;;;;;;;;;4980520;28;20047;-83
2023/05/17 14:36:04;;;;;;;4.43;2.10;;;;;;;;;;4979480;28;20051;-84
2023/05/17 14:38:32;;;;;;;5.68;1.45;;;;;;;;;;4980303;28;20059;-84
2023/05/17 14:40:59;;;;;;;5.00;1.88;;;;;;;;;;4981473;28;20059;-83
2023/05/17 14:43:27;;;;;;;8.40;2.05;;;;;;;;;;4980538;28;20050;-84
2023/05/17 14:45:55;;;;;;;11.00;1.85;;;;;;;;;;4980058;28;20094;-84
2023/05/17 14:48:22;;;;;;;5.93;1.80;;;;;;;;;;4980759;28;20050;-84